Time;durP1;ratioP1;P1;durP2;ratioP2;P2;SDS_P1;SDS_P2;PMS_P1;PMS_P2;Temp;Humidity;BMP_temperature;BMP_pressure;BME280_temperature;BME280_humidity;BME280_pressure;Samples;Min_cycle;Max_cycle;Signal;HPM_P1;HPM_P2
2021/12/02 00:00:57;;;;;;;5.28;2.60;;;;;;;5.23;78.14;97209.81;2624137;54;20034;-73
2021/12/02 00:03:28;;;;;;;6.30;2.60;;;;;;;5.22;78.10;97205.56;2625103;54;20114;-71
2021/12/02 00:05:58;;;;;;;3.88;2.08;;;;;;;5.21;77.86;97210.00;2626332;39;20443;-72
2021/12/02 00:08:28;;;;;;;8.00;2.97;;;;;;;5.18;78.12;97214.81;2624350;47;20034;-71
2021/12/02 00:10:57;;;;;;;5.40;3.03;;;;;;;5.14;78.70;97217.03;2623963;54;20994;-71
2021/12/02 00:13:29;;;;;;;5.95;3.03;;;;;;;5.12;78.91;97215.63;2621968;54;20026;-71
2021/12/02 00:16:10;;;;;;;5.82;2.80;;;;;;;5.16;78.67;97211.59;2623438;54;20031;-71
2021/12/02 00:21:25;;;;;;;8.30;2.88;;;;;;;5.12;78.36;97207.75;2622660;47;20026;-71
2021/12/02 00:24:07;;;;;;;6.60;3.53;;;;;;;5.14;78.65;97210.97;2623485;54;20042;-71
2021/12/02 00:26:39;;;;;;;8.77;3.00;;;;;;;5.14;78.77;97208.34;2625429;54;20046;-72
2021/12/02 00:29:11;;;;;;;5.72;2.95;;;;;;;5.17;78.52;97214.00;2625478;54;20063;-72
2021/12/02 00:31:43;;;;;;;9.88;3.00;;;;;;;5.17;78.50;97215.84;2625354;54;20090;-71
2021/12/02 00:34:13;;;;;;;6.35;3.08;;;;;;;5.16;78.62;97216.84;2625735;47;20059;-70
2021/12/02 00:36:43;;;;;;;5.40;2.40;;;;;;;5.12;78.63;97215.63;2625503;47;20042;-72
2021/12/02 00:39:15;;;;;;;7.32;2.95;;;;;;;5.12;78.75;97215.63;2625747;47;20038;-71
2021/12/02 00:41:45;;;;;;;7.03;2.90;;;;;;;5.09;78.33;97221.25;2626319;54;20027;-71
2021/12/02 00:44:16;;;;;;;4.53;2.63;;;;;;;5.08;78.60;97220.44;2626357;54;20038;-71
2021/12/02 00:46:50;;;;;;;7.03;3.35;;;;;;;5.12;78.62;97226.91;2626617;54;20039;-71
2021/12/02 00:49:21;;;;;;;8.23;3.10;;;;;;;5.13;78.78;97230.31;2626023;54;20031;-70
2021/12/02 00:51:55;;;;;;;4.68;2.88;;;;;;;5.15;78.65;97225.72;2626110;54;20038;-71
2021/12/02 00:54:27;;;;;;;4.55;2.78;;;;;;;5.18;79.21;97231.38;2625048;54;20027;-72
2021/12/02 00:56:57;;;;;;;4.72;2.80;;;;;;;5.24;79.38;97234.19;2625347;54;20026;-72
2021/12/02 00:59:31;;;;;;;6.80;3.35;;;;;;;5.33;78.92;97233.00;2624636;47;20025;-72
2021/12/02 01:02:04;;;;;;;11.23;3.22;;;;;;;5.34;78.51;97229.38;2625024;54;20034;-71
2021/12/02 01:04:34;;;;;;;13.57;3.40;;;;;;;5.38;79.10;97234.03;2625768;47;20045;-72
2021/12/02 01:07:03;;;;;;;9.63;2.92;;;;;;;5.43;78.78;97229.03;2626446;54;20276;-73
2021/12/02 01:09:33;;;;;;;8.80;3.53;;;;;;;5.47;78.45;97232.06;2626132;39;20467;-71
2021/12/02 01:12:03;;;;;;;5.35;3.13;;;;;;;5.50;78.16;97230.84;2625210;54;20058;-71
2021/12/02 01:14:33;;;;;;;10.85;3.42;;;;;;;5.49;78.67;97222.16;2625027;47;20058;-70
2021/12/02 01:17:05;;;;;;;5.57;3.17;;;;;;;5.55;78.10;97220.56;2625624;54;20046;-71
2021/12/02 01:19:35;;;;;;;6.00;3.00;;;;;;;5.57;77.85;97216.75;2625136;54;20041;-70
2021/12/02 01:22:06;;;;;;;6.93;3.22;;;;;;;5.57;77.68;97221.97;2625279;39;20474;-70
2021/12/02 01:24:36;;;;;;;9.45;3.70;;;;;;;5.54;78.13;97230.22;2623784;47;20023;-71
2021/12/02 01:27:12;;;;;;;8.23;3.60;;;;;;;5.60;77.90;97224.22;2624531;54;20549;-71
2021/12/02 01:29:43;;;;;;;7.80;3.38;;;;;;;5.62;77.97;97216.94;2624079;54;20034;-71
2021/12/02 01:32:15;;;;;;;5.70;3.35;;;;;;;5.58;77.45;97225.41;2623234;54;20035;-71
2021/12/02 01:34:48;;;;;;;8.93;3.17;;;;;;;5.59;77.37;97227.00;2623499;54;20046;-70
2021/12/02 01:37:18;;;;;;;6.68;3.40;;;;;;;5.60;77.61;97234.69;2624628;54;20027;-70
2021/12/02 01:39:47;;;;;;;6.47;3.35;;;;;;;5.66;77.55;97243.56;2624700;54;20541;-70
2021/12/02 01:42:27;;;;;;;6.30;3.15;;;;;;;5.69;77.42;97243.19;2624883;54;20038;-71
2021/12/02 01:44:58;;;;;;;6.78;3.50;;;;;;;5.68;77.43;97231.88;2624543;54;20037;-71
2021/12/02 01:47:32;;;;;;;9.48;3.65;;;;;;;5.70;77.00;97244.78;2625150;54;20532;-71
2021/12/02 01:50:04;;;;;;;8.38;3.08;;;;;;;5.68;77.05;97231.88;2623542;47;20038;-72
2021/12/02 01:52:34;;;;;;;7.55;3.42;;;;;;;5.75;77.30;97241.56;2624946;54;20035;-71
2021/12/02 01:55:08;;;;;;;7.95;3.45;;;;;;;5.78;76.89;97239.34;2624295;54;20061;-71
2021/12/02 01:57:43;;;;;;;6.43;3.33;;;;;;;5.76;76.92;97248.44;2624107;54;20035;-72
2021/12/02 02:00:19;;;;;;;4.10;2.53;;;;;;;5.74;76.60;97240.75;2624384;54;20026;-72
2021/12/02 02:02:52;;;;;;;5.05;2.72;;;;;;;5.76;76.99;97245.81;2625519;54;20023;-72
2021/12/02 02:05:22;;;;;;;10.82;3.22;;;;;;;5.77;76.97;97250.03;2625280;54;20046;-72
2021/12/02 02:07:57;;;;;;;5.85;3.70;;;;;;;5.82;76.75;97245.81;2625169;54;20054;-73
2021/12/02 02:10:27;;;;;;;7.13;3.58;;;;;;;5.82;76.93;97245.81;2624971;54;20045;-71
2021/12/02 02:13:00;;;;;;;4.72;2.55;;;;;;;5.82;76.46;97247.63;2624534;54;20054;-71
2021/12/02 02:15:30;;;;;;;3.90;2.60;;;;;;;5.78;76.79;97247.22;2624334;54;20053;-72
2021/12/02 02:18:06;;;;;;;6.78;2.85;;;;;;;5.80;76.97;97241.78;2624685;54;20039;-72
2021/12/02 02:20:49;;;;;;;6.20;3.40;;;;;;;5.82;76.58;97245.81;2624586;54;20065;-72
2021/12/02 02:23:19;;;;;;;3.83;2.47;;;;;;;5.82;76.59;97237.94;2624561;54;20617;-74
2021/12/02 02:25:50;;;;;;;6.95;2.70;;;;;;;5.84;76.74;97232.50;2625567;54;20022;-71
2021/12/02 02:28:19;;;;;;;5.95;2.50;;;;;;;5.83;76.27;97234.31;2625902;54;20030;-71
2021/12/02 02:30:50;;;;;;;6.78;2.67;;;;;;;5.78;76.66;97239.34;2626044;54;20038;-72
2021/12/02 02:33:20;;;;;;;5.90;2.80;;;;;;;5.73;76.84;97236.53;2626018;54;20039;-72
2021/12/02 02:35:53;;;;;;;6.00;2.28;;;;;;;5.75;76.88;97238.94;2626101;54;20069;-71
2021/12/02 02:38:23;;;;;;;6.45;2.92;;;;;;;5.67;76.96;97232.91;2625190;47;20031;-71
2021/12/02 02:40:54;;;;;;;5.35;3.08;;;;;;;5.68;77.48;97225.84;2625515;54;20038;-71
2021/12/02 02:43:25;;;;;;;7.75;2.72;;;;;;;5.65;77.62;97240.13;2625362;54;20054;-72
2021/12/02 02:45:55;;;;;;;6.85;2.40;;;;;;;5.64;77.40;97238.53;2625669;54;20038;-71
2021/12/02 02:48:25;;;;;;;8.68;2.70;;;;;;;5.65;77.65;97241.97;2624415;54;20045;-72
2021/12/02 02:50:57;;;;;;;7.25;2.58;;;;;;;5.67;77.93;97238.13;2623745;54;20031;-72
2021/12/02 02:53:27;;;;;;;4.53;2.00;;;;;;;5.68;77.58;97244.19;2623371;54;20027;-72
2021/12/02 02:56:07;;;;;;;7.18;1.90;;;;;;;5.60;77.55;97239.13;2623252;54;20030;-72
2021/12/02 02:58:51;;;;;;;3.80;1.73;;;;;;;5.55;77.64;97247.59;2622991;51;20042;-71
2021/12/02 03:01:33;;;;;;;4.30;1.92;;;;;;;5.56;77.50;97238.72;2624232;54;20062;-71
2021/12/02 03:04:13;;;;;;;3.22;1.90;;;;;;;5.58;77.60;97235.88;2629428;39;20469;-71
2021/12/02 03:06:51;;;;;;;5.70;1.85;;;;;;;5.56;77.74;97237.91;2625803;54;20030;-71
2021/12/02 03:09:37;;;;;;;3.40;1.60;;;;;;;5.58;77.85;97246.38;2626050;54;20023;-71
2021/12/02 03:12:17;;;;;;;5.80;1.85;;;;;;;5.55;77.79;97237.13;2626218;54;20042;-71
2021/12/02 03:16:37;;;;;;;3.83;2.30;;;;;;;5.61;77.63;97233.69;2625170;54;20034;-71
2021/12/02 03:17:41;;;;;;;3.70;1.80;;;;;;;5.64;77.56;97233.28;2625077;54;20037;-70
2021/12/02 03:20:12;;;;;;;2.13;1.60;;;;;;;5.68;77.87;97234.50;2624499;47;20041;-70
2021/12/02 03:22:46;;;;;;;7.00;2.75;;;;;;;5.74;77.36;97232.09;2625521;54;20039;-70
2021/12/02 03:25:15;;;;;;;4.70;2.00;;;;;;;5.74;77.13;97232.09;2625057;54;20030;-71
2021/12/02 03:27:45;;;;;;;5.10;2.03;;;;;;;5.74;77.55;97235.50;2625190;54;20034;-71
2021/12/02 03:30:14;;;;;;;6.13;2.60;;;;;;;5.72;77.50;97238.34;2626343;54;20034;-71
2021/12/02 03:32:44;;;;;;;5.15;2.70;;;;;;;5.69;77.70;97237.94;2621290;54;20050;-70
2021/12/02 03:35:14;;;;;;;5.13;2.35;;;;;;;5.73;77.32;97236.53;2618212;54;20037;-70
2021/12/02 03:37:46;;;;;;;4.15;2.78;;;;;;;5.70;77.62;97244.78;2617775;47;20037;-71
2021/12/02 03:40:16;;;;;;;6.57;2.80;;;;;;;5.68;77.67;97236.31;2617567;47;20029;-70
2021/12/02 03:42:50;;;;;;;7.40;2.88;;;;;;;5.70;77.57;97235.09;2620713;54;20022;-72
2021/12/02 03:45:25;;;;;;;9.30;2.90;;;;;;;5.73;78.03;97231.28;2619654;50;20042;-71
2021/12/02 03:47:55;;;;;;;11.15;2.90;;;;;;;5.69;77.68;97224.81;2620577;54;20038;-71
2021/12/02 03:50:25;;;;;;;7.10;3.22;;;;;;;5.68;77.49;97228.47;2620357;54;20038;-73
2021/12/02 03:52:57;;;;;;;8.60;3.20;;;;;;;5.64;77.61;97222.81;2620647;54;20030;-72
2021/12/02 03:55:27;;;;;;;5.22;3.60;;;;;;;5.62;77.88;97219.56;2620711;54;20026;-72
2021/12/02 03:57:56;;;;;;;7.65;3.10;;;;;;;5.58;77.57;97218.34;2620962;54;20035;-72
2021/12/02 04:00:26;;;;;;;7.38;2.90;;;;;;;5.62;77.33;97219.56;2621766;54;20034;-71
2021/12/02 04:02:56;;;;;;;6.40;3.00;;;;;;;5.64;77.45;97216.75;2620697;54;20046;-71
2021/12/02 04:05:26;;;;;;;6.50;3.15;;;;;;;5.66;77.25;97212.09;2618038;54;20065;-71
2021/12/02 04:07:58;;;;;;;10.90;3.55;;;;;;;5.66;77.30;97212.91;2617619;47;20041;-71
2021/12/02 04:10:28;;;;;;;8.65;3.65;;;;;;;5.66;77.13;97212.09;2618374;39;20797;-71
2021/12/02 04:13:05;;;;;;;9.80;3.60;;;;;;;5.71;76.90;97213.13;2618048;54;20031;-71
2021/12/02 04:15:36;;;;;;;8.93;3.40;;;;;;;5.77;76.55;97210.72;2618149;54;20046;-72
2021/12/02 04:18:06;;;;;;;10.13;3.83;;;;;;;5.75;76.92;97208.28;2618779;39;20418;-72
2021/12/02 04:20:37;;;;;;;8.32;4.15;;;;;;;5.74;76.74;97209.28;2617988;54;20035;-71
2021/12/02 04:23:09;;;;;;;7.75;3.67;;;;;;;5.74;77.07;97205.88;2617811;54;20041;-72
2021/12/02 04:25:39;;;;;;;10.20;3.83;;;;;;;5.77;76.88;97205.47;2617197;47;20035;-71
2021/12/02 04:28:09;;;;;;;8.68;4.13;;;;;;;5.75;77.07;97194.38;2617493;47;20031;-71
2021/12/02 04:30:38;;;;;;;8.45;3.95;;;;;;;5.75;77.21;97184.69;2617703;47;20582;-71
2021/12/02 04:33:08;;;;;;;8.23;3.80;;;;;;;5.76;76.94;97202.03;2618590;47;20034;-72
2021/12/02 04:35:37;;;;;;;6.82;3.75;;;;;;;5.75;77.04;97196.97;2622088;47;20038;-72
2021/12/02 04:38:09;;;;;;;12.13;3.47;;;;;;;5.70;76.92;97194.97;2624094;54;20038;-71
2021/12/02 04:40:41;;;;;;;8.63;4.10;;;;;;;5.65;77.12;97187.72;2624871;54;20041;-70
2021/12/02 04:43:12;;;;;;;7.70;3.45;;;;;;;5.65;77.55;97202.63;2624874;54;20032;-71
2021/12/02 04:45:42;;;;;;;6.65;3.35;;;;;;;5.62;77.83;97193.34;2624935;54;20047;-72
2021/12/02 04:48:11;;;;;;;6.65;3.58;;;;;;;5.57;77.31;97190.53;2624622;54;20110;-72
2021/12/02 04:50:41;;;;;;;7.40;3.47;;;;;;;5.62;77.55;97197.78;2626104;54;20042;-71
2021/12/02 04:53:14;;;;;;;9.43;4.15;;;;;;;5.65;77.29;97189.53;2626220;39;20430;-71
2021/12/02 04:55:44;;;;;;;10.60;3.60;;;;;;;5.65;77.59;97194.78;2626421;54;20049;-72
2021/12/02 04:58:14;;;;;;;6.25;2.97;;;;;;;5.63;77.54;97191.53;2625925;54;20030;-72
2021/12/02 05:00:43;;;;;;;8.02;4.43;;;;;;;5.62;77.55;97200.41;2625888;54;20042;-72
2021/12/02 05:03:13;;;;;;;4.90;3.38;;;;;;;5.68;77.59;97197.81;2625901;54;20035;-71
2021/12/02 05:05:43;;;;;;;8.35;4.03;;;;;;;5.65;77.39;97198.19;2624983;54;20030;-72
2021/12/02 05:08:15;;;;;;;9.07;3.97;;;;;;;5.61;77.95;97198.78;2624309;47;20030;-72
2021/12/02 05:10:45;;;;;;;7.88;3.55;;;;;;;5.54;77.94;97211.09;2625040;54;20019;-72
2021/12/02 05:13:14;;;;;;;7.30;4.00;;;;;;;5.43;78.75;97197.56;2624856;54;20042;-72
2021/12/02 05:15:45;;;;;;;9.98;3.90;;;;;;;5.43;79.07;97208.06;2624757;54;20581;-70
2021/12/02 05:18:14;;;;;;;7.72;4.13;;;;;;;5.39;79.03;97206.84;2624565;54;20026;-71
2021/12/02 05:20:44;;;;;;;7.07;3.90;;;;;;;5.40;78.94;97213.69;2625277;54;20038;-73
2021/12/02 05:23:16;;;;;;;8.30;4.82;;;;;;;5.38;79.38;97215.69;2624565;54;20058;-69
2021/12/02 05:25:46;;;;;;;9.90;4.30;;;;;;;5.34;79.81;97216.28;2622120;47;20050;-71
2021/12/02 05:28:18;;;;;;;8.35;4.82;;;;;;;5.37;79.88;97214.06;2623150;54;20568;-73
2021/12/02 05:30:47;;;;;;;10.43;4.82;;;;;;;5.43;79.55;97218.53;2623656;39;20461;-70
2021/12/02 05:33:18;;;;;;;7.53;4.35;;;;;;;5.42;79.68;97219.53;2622762;54;20030;-71
2021/12/02 05:35:48;;;;;;;12.80;5.25;;;;;;;5.45;79.74;97223.56;2622678;54;20034;-71
2021/12/02 05:38:20;;;;;;;12.40;5.18;;;;;;;5.44;80.00;97224.59;2623376;54;20641;-71
2021/12/02 05:40:50;;;;;;;8.90;4.35;;;;;;;5.45;79.87;97223.56;2622112;51;20034;-69
2021/12/02 05:43:19;;;;;;;10.85;4.63;;;;;;;5.45;79.59;97227.00;2624616;54;20062;-70
2021/12/02 05:45:50;;;;;;;9.55;4.22;;;;;;;5.47;79.77;97225.00;2625026;47;20042;-70
2021/12/02 05:48:19;;;;;;;7.25;3.72;;;;;;;5.44;79.93;97222.75;2623711;47;20041;-70
2021/12/02 05:50:49;;;;;;;4.80;3.15;;;;;;;5.46;79.50;97230.41;2623650;54;20034;-72
2021/12/02 05:53:21;;;;;;;7.20;2.92;;;;;;;5.43;79.10;97221.16;2623994;54;20081;-69
2021/12/02 05:55:51;;;;;;;7.15;3.00;;;;;;;5.40;79.19;97224.16;2623886;54;20577;-72
2021/12/02 05:58:21;;;;;;;4.95;2.83;;;;;;;5.45;79.27;97228.81;2625094;54;20037;-71
2021/12/02 06:00:51;;;;;;;6.65;2.55;;;;;;;5.47;79.32;97222.38;2624850;54;20049;-70
2021/12/02 06:03:20;;;;;;;2.35;2.15;;;;;;;5.47;78.74;97226.81;2624451;54;20538;-69
2021/12/02 06:05:53;;;;;;;6.53;2.75;;;;;;;5.46;78.96;97225.19;2623649;39;20133;-69
2021/12/02 06:08:25;;;;;;;3.55;2.00;;;;;;;5.44;78.79;97230.63;2624158;54;20037;-69
2021/12/02 06:10:55;;;;;;;3.83;2.13;;;;;;;5.43;78.80;97230.84;2624379;39;20414;-69
2021/12/02 06:13:25;;;;;;;3.92;2.40;;;;;;;5.42;78.59;97235.25;2624590;54;20027;-70
2021/12/02 06:15:55;;;;;;;4.93;2.55;;;;;;;5.38;78.96;97234.03;2624017;47;20034;-70
2021/12/02 06:18:25;;;;;;;4.63;2.25;;;;;;;5.34;79.08;97238.03;2623959;54;20027;-69
2021/12/02 06:20:55;;;;;;;3.20;2.50;;;;;;;5.36;78.98;97235.25;2623700;54;20038;-70
2021/12/02 06:23:28;;;;;;;5.63;2.15;;;;;;;5.34;79.20;97237.25;2624205;54;20533;-70
2021/12/02 06:25:57;;;;;;;4.63;1.98;;;;;;;5.31;79.08;97235.84;2624080;54;20027;-70
2021/12/02 06:28:27;;;;;;;4.97;2.70;;;;;;;5.28;79.00;97244.09;2623974;46;20062;-70
2021/12/02 06:30:57;;;;;;;4.85;2.45;;;;;;;5.28;79.19;97245.91;2623300;47;20034;-70
2021/12/02 06:33:26;;;;;;;4.03;2.25;;;;;;;5.19;78.83;97240.84;2623615;54;20034;-74
2021/12/02 06:35:56;;;;;;;3.15;1.77;;;;;;;5.15;79.02;97244.03;2623551;54;20037;-70
2021/12/02 06:38:28;;;;;;;4.25;2.35;;;;;;;5.12;78.91;97247.84;2623314;49;20038;-70
2021/12/02 06:40:58;;;;;;;4.30;2.08;;;;;;;5.09;79.65;97247.44;2623203;54;20258;-71
2021/12/02 06:43:28;;;;;;;3.22;2.20;;;;;;;5.17;79.35;97252.50;2622942;47;20031;-70
2021/12/02 06:45:57;;;;;;;2.55;2.13;;;;;;;5.06;78.98;97250.44;2623160;39;20450;-71
2021/12/02 06:48:27;;;;;;;5.30;2.42;;;;;;;5.01;79.29;97258.88;2622335;54;20042;-72
2021/12/02 06:50:57;;;;;;;5.05;2.20;;;;;;;4.95;79.55;97244.78;2622187;54;20026;-69
2021/12/02 06:53:29;;;;;;;5.90;2.47;;;;;;;4.92;79.62;97257.44;2621755;54;20033;-71
2021/12/02 06:55:58;;;;;;;6.68;2.58;;;;;;;4.97;79.74;97255.84;2621672;54;20037;-70
2021/12/02 06:58:28;;;;;;;2.88;2.60;;;;;;;4.94;79.75;97258.88;2620410;54;20074;-71
2021/12/02 07:00:57;;;;;;;4.95;2.88;;;;;;;4.92;79.90;97257.44;2619454;54;20035;-69
2021/12/02 07:03:27;;;;;;;4.50;2.50;;;;;;;4.93;80.22;97265.09;2621859;54;20046;-73
2021/12/02 07:05:57;;;;;;;4.68;2.47;;;;;;;4.93;80.33;97270.31;2622409;54;20046;-72
2021/12/02 07:08:31;;;;;;;5.80;2.58;;;;;;;4.97;80.03;97276.00;2622956;54;20030;-73
2021/12/02 07:11:04;;;;;;;5.43;2.92;;;;;;;5.05;80.24;97273.19;2623483;54;20054;-74
2021/12/02 07:13:35;;;;;;;6.20;3.10;;;;;;;5.02;80.35;97268.38;2624432;54;20027;-71
2021/12/02 07:16:05;;;;;;;6.25;3.50;;;;;;;5.01;80.12;97279.03;2624473;47;20568;-71
2021/12/02 07:18:38;;;;;;;6.60;3.85;;;;;;;4.96;79.86;97285.66;2625085;54;20019;-73
2021/12/02 07:21:08;;;;;;;6.80;3.80;;;;;;;4.92;80.30;97279.19;2623506;46;20038;-72
2021/12/02 07:23:40;;;;;;;9.00;4.15;;;;;;;4.93;80.40;97288.66;2624536;54;20045;-73
2021/12/02 07:26:10;;;;;;;6.18;4.40;;;;;;;4.94;80.66;97287.69;2624117;46;20035;-72
2021/12/02 07:28:39;;;;;;;6.93;3.38;;;;;;;4.93;80.58;97287.84;2624432;54;20026;-73
2021/12/02 07:31:09;;;;;;;3.75;2.80;;;;;;;4.90;80.44;97288.25;2624148;54;20027;-71
2021/12/02 07:33:42;;;;;;;4.43;3.10;;;;;;;4.92;80.58;97301.94;2623610;51;20029;-71
2021/12/02 07:36:12;;;;;;;4.10;2.90;;;;;;;4.90;80.80;97299.53;2625246;54;20058;-72
2021/12/02 07:38:44;;;;;;;7.20;3.08;;;;;;;4.88;80.69;97303.34;2625386;54;20078;-70
2021/12/02 07:41:14;;;;;;;5.32;3.20;;;;;;;4.88;80.67;97309.38;2624895;39;20401;-70
2021/12/02 07:43:44;;;;;;;6.68;4.28;;;;;;;4.86;80.85;97316.63;2624469;47;20030;-70
2021/12/02 07:46:13;;;;;;;5.28;4.07;;;;;;;4.85;81.04;97317.63;2624572;54;20030;-70
2021/12/02 07:48:43;;;;;;;6.90;3.97;;;;;;;4.91;81.23;97329.94;2625165;54;20050;-70
2021/12/02 07:51:15;;;;;;;5.38;3.42;;;;;;;4.93;80.76;97321.91;2623899;47;20046;-70
2021/12/02 07:53:50;;;;;;;4.30;3.17;;;;;;;4.86;80.77;97318.44;2624316;54;20042;-70
2021/12/02 07:56:20;;;;;;;;;;;;;;;4.82;80.76;97331.13;2624136;54;20030;-71
2021/12/02 07:58:50;;;;;;;6.00;3.25;;;;;;;4.83;81.05;97331.91;2624778;54;19946;-69
2021/12/02 08:01:20;;;;;;;6.80;3.50;;;;;;;4.87;81.23;97338.38;2623169;47;20030;-71
2021/12/02 08:03:51;;;;;;;6.80;3.88;;;;;;;4.95;80.61;97344.28;2623840;54;20134;-70
2021/12/02 08:06:23;;;;;;;3.90;3.05;;;;;;;4.92;80.58;97338.63;2624182;54;20026;-71
2021/12/02 08:08:55;;;;;;;11.02;4.18;;;;;;;4.95;80.47;97340.84;2623870;47;20027;-70
2021/12/02 08:11:25;;;;;;;5.70;3.10;;;;;;;5.01;80.30;97344.50;2624032;54;20027;-71
2021/12/02 08:13:56;;;;;;;6.10;4.00;;;;;;;5.02;80.02;97339.09;2624273;47;20034;-70
2021/12/02 08:16:27;;;;;;;6.07;3.60;;;;;;;5.08;80.13;97340.94;2625093;54;20037;-69
2021/12/02 08:19:00;;;;;;;3.65;2.90;;;;;;;5.06;79.83;97344.72;2624871;54;20062;-70
2021/12/02 08:21:30;;;;;;;6.72;3.28;;;;;;;5.08;79.97;97342.75;2623912;47;20038;-70
2021/12/02 08:24:02;;;;;;;4.82;3.25;;;;;;;5.07;79.55;97351.59;2623078;54;20039;-69
2021/12/02 08:26:32;;;;;;;4.05;2.70;;;;;;;5.07;79.97;97357.66;2623366;54;20041;-69
2021/12/02 08:29:02;;;;;;;5.40;2.60;;;;;;;5.02;79.33;97359.22;2622349;54;20035;-69
2021/12/02 08:31:32;;;;;;;4.15;2.70;;;;;;;5.03;79.14;97345.94;2622962;46;20070;-71
2021/12/02 08:34:03;;;;;;;5.30;3.10;;;;;;;5.09;79.42;97354.81;2622138;47;20031;-71
2021/12/02 08:36:41;;;;;;;3.08;2.67;;;;;;;5.15;79.24;97354.06;2622772;54;20042;-71
2021/12/02 08:39:17;;;;;;;4.82;2.67;;;;;;;5.20;79.02;97352.47;2623174;54;20031;-70
2021/12/02 08:41:48;;;;;;;4.10;2.80;;;;;;;5.22;78.76;97363.59;2621655;54;20069;-72
2021/12/02 08:44:19;;;;;;;3.35;2.25;;;;;;;5.24;78.76;97370.44;2622351;54;20037;-69
2021/12/02 08:46:49;;;;;;;4.18;3.10;;;;;;;5.19;78.02;97378.88;2622279;54;20027;-71
2021/12/02 08:49:20;;;;;;;5.88;2.90;;;;;;;5.19;78.18;97376.25;2622780;54;20030;-69
2021/12/02 08:51:51;;;;;;;4.45;3.05;;;;;;;5.22;78.67;97383.72;2623054;54;20027;-70
2021/12/02 08:54:23;;;;;;;4.50;2.92;;;;;;;5.20;78.67;97390.97;2624122;54;20039;-72
2021/12/02 08:56:54;;;;;;;4.15;2.85;;;;;;;5.16;78.63;97390.53;2623608;47;20046;-72
2021/12/02 08:59:24;;;;;;;6.13;2.90;;;;;;;5.18;78.55;97385.94;2623546;54;20033;-72
2021/12/02 09:01:54;;;;;;;9.10;3.40;;;;;;;5.30;78.44;97382.75;2622734;54;20581;-72
2021/12/02 09:04:24;;;;;;;5.32;2.65;;;;;;;5.26;78.09;97378.91;2621831;47;20031;-71
2021/12/02 09:06:53;;;;;;;4.03;2.85;;;;;;;5.33;78.05;97382.38;2622536;39;20404;-71
2021/12/02 09:09:27;;;;;;;4.45;3.15;;;;;;;5.43;78.18;97380.22;2621507;54;20086;-71
2021/12/02 09:11:57;;;;;;;7.18;3.25;;;;;;;5.45;77.43;97383.44;2621446;47;20042;-71
2021/12/02 09:14:26;;;;;;;4.43;2.83;;;;;;;5.34;77.52;97381.38;2622175;54;20031;-71
2021/12/02 09:16:56;;;;;;;3.00;2.50;;;;;;;5.36;76.97;97385.41;2623566;54;20033;-69
2021/12/02 09:19:26;;;;;;;3.50;2.72;;;;;;;5.26;77.09;97387.56;2624834;54;20026;-70
2021/12/02 09:21:56;;;;;;;4.82;2.83;;;;;;;5.19;77.15;97402.47;2623788;54;20050;-70
2021/12/02 09:24:28;;;;;;;1.95;1.75;;;;;;;5.15;76.92;97403.84;2624455;54;20538;-70
2021/12/02 09:26:58;;;;;;;2.40;1.95;;;;;;;5.07;76.93;97406.63;2627290;39;20438;-70
2021/12/02 09:29:28;;;;;;;5.20;2.30;;;;;;;5.10;77.50;97401.81;2624119;54;20034;-72
2021/12/02 09:31:58;;;;;;;4.68;1.60;;;;;;;5.12;77.04;97401.59;2624364;46;20788;-70
2021/12/02 09:34:28;;;;;;;3.60;1.60;;;;;;;5.06;77.36;97387.47;2624119;54;20082;-70
2021/12/02 09:36:58;;;;;;;4.28;1.85;;;;;;;5.02;76.86;97401.13;2623956;54;20035;-70
2021/12/02 09:39:32;;;;;;;3.30;2.08;;;;;;;5.02;77.40;97401.94;2622644;54;20023;-70
2021/12/02 09:42:03;;;;;;;3.15;2.30;;;;;;;5.07;77.12;97406.63;2621968;54;20038;-69
2021/12/02 09:44:52;;;;;;;5.57;3.70;;;;;;;5.05;77.36;97405.97;2622717;54;20117;-70
2021/12/02 09:47:21;;;;;;;3.53;2.63;;;;;;;5.09;77.38;97413.25;2622920;54;20042;-70
2021/12/02 09:49:52;;;;;;;2.60;2.00;;;;;;;5.09;76.60;97420.31;2624343;54;20118;-69
2021/12/02 09:52:29;;;;;;;2.10;1.90;;;;;;;5.12;76.79;97422.56;2624154;54;20043;-71
2021/12/02 09:55:04;;;;;;;4.40;2.85;;;;;;;5.20;76.87;97415.34;2624171;54;20054;-70
2021/12/02 09:57:39;;;;;;;5.95;3.50;;;;;;;5.21;76.69;97416.97;2623622;54;20030;-71
2021/12/02 10:00:16;;;;;;;5.80;3.67;;;;;;;5.24;76.57;97423.66;2623010;46;20049;-71
2021/12/02 10:02:52;;;;;;;4.55;2.92;;;;;;;5.28;76.05;97421.44;2621650;54;20033;-70
2021/12/02 10:05:38;;;;;;;3.15;2.38;;;;;;;5.35;75.86;97419.69;2621468;54;20014;-70
2021/12/02 10:08:09;;;;;;;4.30;2.97;;;;;;;5.45;75.53;97418.31;2623662;39;20450;-70
2021/12/02 10:10:53;;;;;;;7.03;3.35;;;;;;;5.60;75.76;97405.09;2619224;54;20038;-71
2021/12/02 10:13:31;;;;;;;8.90;3.88;;;;;;;5.76;75.20;97408.41;2620180;54;20029;-71
2021/12/02 10:16:10;;;;;;;3.63;2.50;;;;;;;5.75;74.92;97404.13;2621797;54;20026;-69
2021/12/02 10:18:50;;;;;;;6.55;3.72;;;;;;;5.76;74.93;97400.53;2620002;54;20038;-70
2021/12/02 10:21:25;;;;;;;4.85;2.60;;;;;;;5.89;74.75;97401.38;2620460;54;20091;-70
2021/12/02 10:24:03;;;;;;;4.38;2.80;;;;;;;5.90;74.27;97404.78;2623003;54;20081;-71
2021/12/02 10:26:39;;;;;;;;;;;;;;;5.79;74.30;97405.34;2625136;39;20458;-71
2021/12/02 10:29:18;;;;;;;3.55;2.50;;;;;;;5.81;73.84;97395.50;2625662;39;20407;-71
2021/12/02 10:31:51;;;;;;;2.13;1.70;;;;;;;5.77;73.46;97399.50;2624890;54;20030;-70
2021/12/02 10:34:21;;;;;;;4.43;1.83;;;;;;;5.84;73.44;97395.91;2626031;39;20551;-71
2021/12/02 10:36:51;;;;;;;4.47;1.67;;;;;;;5.87;73.16;97398.13;2623807;54;20035;-70
2021/12/02 10:39:25;;;;;;;2.10;1.52;;;;;;;5.90;72.80;97392.50;2623652;54;20034;-71
2021/12/02 10:42:04;;;;;;;2.70;1.42;;;;;;;5.97;72.41;97399.63;2622746;54;20034;-71
2021/12/02 10:44:35;;;;;;;4.10;1.70;;;;;;;5.92;71.90;97406.25;2623247;54;20093;-71
2021/12/02 10:47:07;;;;;;;2.97;0.80;;;;;;;6.02;71.42;97410.31;2622944;54;20030;-71
2021/12/02 10:49:44;;;;;;;2.70;0.93;;;;;;;6.01;70.83;97395.59;2622494;54;20034;-71
2021/12/02 10:52:16;;;;;;;2.80;1.10;;;;;;;5.97;70.89;97403.03;2623235;54;20034;-72
2021/12/02 10:54:51;;;;;;;1.52;1.17;;;;;;;5.95;70.34;97403.22;2622963;54;20031;-71
2021/12/02 10:57:25;;;;;;;2.15;0.70;;;;;;;5.92;69.42;97408.06;2623029;54;20034;-71
2021/12/02 10:59:57;;;;;;;2.00;0.80;;;;;;;5.87;68.96;97406.00;2622911;39;20438;-70
2021/12/02 11:02:29;;;;;;;1.85;0.80;;;;;;;5.83;69.02;97401.34;2622564;54;20030;-70
2021/12/02 11:05:01;;;;;;;2.13;1.23;;;;;;;5.74;68.88;97405.94;2623090;54;20022;-70
2021/12/02 11:07:33;;;;;;;2.17;1.15;;;;;;;5.63;69.20;97401.25;2622827;54;20045;-71
2021/12/02 11:10:06;;;;;;;2.95;0.85;;;;;;;5.60;68.74;97407.72;2623089;54;20038;-70
2021/12/02 11:12:40;;;;;;;5.97;3.25;;;;;;;5.66;69.83;97406.91;2622574;54;20578;-69
2021/12/02 11:15:11;;;;;;;;;;;;;;;5.87;69.78;97411.22;2622345;47;20041;-70
2021/12/02 11:17:45;;;;;;;3.22;0.70;;;;;;;5.67;68.87;97411.19;2622820;54;19939;-70
2021/12/02 11:20:20;;;;;;;1.83;0.85;;;;;;;5.52;69.59;97415.75;2622572;54;20030;-71
2021/12/02 11:22:51;;;;;;;2.17;1.10;;;;;;;5.44;70.31;97410.66;2622826;54;20038;-70
2021/12/02 11:25:21;;;;;;;2.65;1.00;;;;;;;5.42;70.63;97410.84;2622913;54;20026;-69
2021/12/02 11:27:55;;;;;;;3.05;1.20;;;;;;;5.31;70.52;97418.47;2623761;39;20423;-67
2021/12/02 11:30:26;;;;;;;2.13;0.98;;;;;;;5.30;70.77;97419.44;2622815;54;20078;-69
2021/12/02 11:32:59;;;;;;;3.20;1.65;;;;;;;5.27;70.89;97417.22;2622931;54;20026;-69
2021/12/02 11:35:32;;;;;;;1.87;1.20;;;;;;;5.24;70.82;97420.22;2623127;54;20039;-68
2021/12/02 11:38:10;;;;;;;1.92;1.23;;;;;;;5.19;71.16;97418.97;2622435;47;20041;-69
2021/12/02 11:40:42;;;;;;;2.03;1.20;;;;;;;5.20;71.32;97417.16;2621027;54;20126;-69
2021/12/02 11:43:18;;;;;;;2.55;0.93;;;;;;;5.24;71.49;97418.41;2621310;54;20031;-69
2021/12/02 11:45:50;;;;;;;4.35;1.23;;;;;;;5.23;70.90;97416.78;2621052;39;20578;-69
2021/12/02 11:48:23;;;;;;;1.20;0.98;;;;;;;5.35;71.24;97414.44;2620770;51;20019;-70
2021/12/02 11:51:00;;;;;;;0.93;0.85;;;;;;;5.34;70.55;97407.56;2620090;54;20130;-69
2021/12/02 11:53:30;;;;;;;2.17;0.95;;;;;;;5.38;70.80;97420.09;2620012;54;20030;-70
2021/12/02 11:56:02;;;;;;;3.95;1.10;;;;;;;5.36;70.29;97424.72;2619958;54;20027;-71
2021/12/02 11:58:34;;;;;;;2.05;1.25;;;;;;;5.35;70.59;97430.16;2620946;54;20034;-69
2021/12/02 12:01:06;;;;;;;3.85;1.10;;;;;;;5.35;70.48;97420.50;2622510;54;20026;-67
2021/12/02 12:03:39;;;;;;;2.28;1.20;;;;;;;5.42;70.67;97425.75;2623075;31;20563;-72
2021/12/02 12:06:11;;;;;;;1.05;0.95;;;;;;;5.48;70.44;97419.75;2622764;54;20030;-69